Time;durP1;ratioP1;P1;durP2;ratioP2;P2;SDS_P1;SDS_P2;PMS_P1;PMS_P2;Temp;Humidity;BMP_temperature;BMP_pressure;BME280_temperature;BME280_humidity;BME280_pressure;Samples;Min_cycle;Max_cycle;Signal;HPM_P1;HPM_P2
2022/04/14 00:00:21;;;;;;;16.42;6.93;;;12.40;80.90;;;;;;4914241;29;20048;-82
2022/04/14 00:02:46;;;;;;;13.10;6.88;;;12.30;81.20;;;;;;4906401;29;20036;-80
2022/04/14 00:05:12;;;;;;;21.25;6.88;;;12.30;81.50;;;;;;4905623;29;20032;-82
2022/04/14 00:07:39;;;;;;;21.92;7.85;;;12.20;81.80;;;;;;4906133;29;20021;-82
2022/04/14 00:10:05;;;;;;;17.33;7.35;;;12.20;82.20;;;;;;4903742;29;20107;-81
2022/04/14 00:12:31;;;;;;;20.13;6.63;;;12.10;82.40;;;;;;4906075;29;20052;-82
2022/04/14 00:14:57;;;;;;;15.50;7.10;;;12.10;82.70;;;;;;4905645;29;20225;-82
2022/04/14 00:17:23;;;;;;;13.65;6.70;;;12.10;83.00;;;;;;4907010;29;20073;-81
2022/04/14 00:19:50;;;;;;;14.48;6.53;;;12.00;83.10;;;;;;4916889;29;20038;-81
2022/04/14 00:22:16;;;;;;;14.20;7.63;;;12.00;83.40;;;;;;4918682;29;20388;-80
2022/04/14 00:24:41;;;;;;;12.57;6.65;;;12.00;83.60;;;;;;4919301;29;20060;-80
2022/04/14 00:27:07;;;;;;;13.32;7.00;;;11.90;83.80;;;;;;4919324;29;20024;-82
2022/04/14 00:29:33;;;;;;;14.10;7.05;;;11.90;84.20;;;;;;4912658;29;22194;-82
2022/04/14 00:32:00;;;;;;;22.10;6.70;;;11.90;84.50;;;;;;4912397;29;20044;-81
2022/04/14 00:34:26;;;;;;;14.52;7.70;;;11.80;84.80;;;;;;4912941;29;20088;-82
2022/04/14 00:36:52;;;;;;;14.27;7.03;;;11.80;85.00;;;;;;4895510;29;20036;-83
2022/04/14 00:39:18;;;;;;;19.58;7.47;;;11.80;85.20;;;;;;4917112;29;20032;-82
2022/04/14 00:41:43;;;;;;;18.33;7.13;;;11.70;85.70;;;;;;4911212;29;20468;-81
2022/04/14 00:44:10;;;;;;;13.35;6.65;;;11.70;85.90;;;;;;4911941;29;20045;-80
2022/04/14 00:46:35;;;;;;;16.42;7.03;;;11.70;86.10;;;;;;4917031;29;20079;-80
2022/04/14 00:49:01;;;;;;;22.30;7.43;;;11.60;86.40;;;;;;4915364;29;20040;-80
2022/04/14 00:51:27;;;;;;;14.00;6.82;;;11.60;86.70;;;;;;4918982;29;20052;-81
2022/04/14 00:53:53;;;;;;;20.75;7.72;;;11.50;87.10;;;;;;4916613;29;20366;-81
2022/04/14 00:56:19;;;;;;;12.50;6.55;;;11.50;87.20;;;;;;4917211;29;20044;-82
2022/04/14 00:58:45;;;;;;;14.70;6.80;;;11.50;87.60;;;;;;4913380;29;20032;-82
2022/04/14 01:01:12;;;;;;;15.80;6.80;;;11.40;87.70;;;;;;4908450;29;20056;-82
2022/04/14 01:03:39;;;;;;;14.60;6.57;;;11.40;87.90;;;;;;4893573;29;20033;-83
2022/04/14 01:06:04;;;;;;;13.57;6.40;;;11.40;88.10;;;;;;4920132;29;20021;-83
2022/04/14 01:08:32;;;;;;;11.45;6.00;;;11.40;88.10;;;;;;4920187;29;20047;-80
2022/04/14 01:10:59;;;;;;;16.15;6.53;;;11.40;88.30;;;;;;4916382;29;20044;-82
2022/04/14 01:13:25;;;;;;;15.07;6.20;;;11.40;89.00;;;;;;4916249;29;20037;-82
2022/04/14 01:15:57;;;;;;;15.93;6.57;;;11.40;90.00;;;;;;4917456;29;20039;-81
2022/04/14 01:18:24;;;;;;;13.23;6.47;;;11.30;90.40;;;;;;4915141;29;20032;-81
2022/04/14 01:20:50;;;;;;;14.43;6.22;;;11.30;91.00;;;;;;4916699;29;20036;-79
2022/04/14 01:23:25;;;;;;;13.95;6.90;;;11.20;91.10;;;;;;4914069;29;20036;-81
2022/04/14 01:25:51;;;;;;;12.48;7.05;;;11.20;91.00;;;;;;4918371;29;20033;-81
2022/04/14 01:28:18;;;;;;;15.00;6.78;;;11.20;91.00;;;;;;4921086;29;20053;-81
2022/04/14 01:30:44;;;;;;;16.35;6.75;;;11.20;91.10;;;;;;4916895;29;20060;-82
2022/04/14 01:33:10;;;;;;;14.23;6.72;;;11.20;91.20;;;;;;4910600;29;20017;-81
2022/04/14 01:35:36;;;;;;;20.60;6.72;;;11.20;91.20;;;;;;4909492;29;20075;-81
2022/04/14 01:38:01;;;;;;;13.65;6.20;;;11.20;91.20;;;;;;4909580;29;20036;-83
2022/04/14 01:40:28;;;;;;;12.55;5.65;;;11.10;91.30;;;;;;4910307;29;20039;-80
2022/04/14 01:42:54;;;;;;;10.25;6.35;;;11.10;91.40;;;;;;4909040;29;20442;-83
2022/04/14 01:45:20;;;;;;;15.48;5.90;;;11.10;91.30;;;;;;4909507;29;20044;-81
2022/04/14 01:47:47;;;;;;;11.15;6.40;;;11.10;91.40;;;;;;4909392;29;20025;-82
2022/04/14 01:50:14;;;;;;;15.63;6.45;;;11.10;91.40;;;;;;4910795;29;20028;-80
2022/04/14 01:52:42;;;;;;;13.20;6.28;;;11.00;91.50;;;;;;4917674;29;20044;-79
2022/04/14 01:55:08;;;;;;;14.70;6.20;;;11.10;91.60;;;;;;4915547;29;20052;-83
2022/04/14 01:57:34;;;;;;;15.35;6.43;;;11.00;91.70;;;;;;4914051;29;20047;-81
2022/04/14 02:00:04;;;;;;;9.02;6.07;;;11.00;91.80;;;;;;4911227;29;20032;-81
2022/04/14 02:02:30;;;;;;;15.73;6.20;;;11.00;91.90;;;;;;4909188;29;20501;-81
2022/04/14 02:04:56;;;;;;;11.18;6.32;;;11.00;92.00;;;;;;4908207;29;20036;-80
2022/04/14 02:07:22;;;;;;;12.40;6.50;;;10.90;92.10;;;;;;4906997;29;20035;-82
2022/04/14 02:09:48;;;;;;;12.48;6.38;;;10.90;92.20;;;;;;4911846;29;20021;-80
2022/04/14 02:12:13;;;;;;;10.13;5.82;;;10.90;92.30;;;;;;4911842;29;20029;-80
2022/04/14 02:14:40;;;;;;;8.32;5.53;;;10.90;92.30;;;;;;4906168;29;20044;-79
2022/04/14 02:17:05;;;;;;;12.52;6.15;;;10.90;92.30;;;;;;4913282;29;20495;-80
2022/04/14 02:19:31;;;;;;;10.07;5.45;;;10.90;92.20;;;;;;4908961;29;20051;-81
2022/04/14 02:21:58;;;;;;;13.30;5.68;;;10.90;92.20;;;;;;4906826;29;20052;-81
2022/04/14 02:24:27;;;;;;;12.60;6.03;;;10.90;92.20;;;;;;4909254;29;20080;-79
2022/04/14 02:26:53;;;;;;;12.48;6.10;;;10.90;92.20;;;;;;4909305;29;20031;-81
2022/04/14 02:29:20;;;;;;;10.95;6.15;;;10.90;92.20;;;;;;4909607;29;20016;-81
2022/04/14 02:31:46;;;;;;;11.15;5.70;;;10.90;92.20;;;;;;4899794;29;20020;-80
2022/04/14 02:34:12;;;;;;;18.63;6.40;;;10.90;92.30;;;;;;4915019;29;20035;-80
2022/04/14 02:36:38;;;;;;;11.38;6.15;;;10.90;92.30;;;;;;4909909;29;20028;-81
2022/04/14 02:39:04;;;;;;;14.13;6.30;;;10.80;92.60;;;;;;4910104;29;20069;-80
2022/04/14 02:41:30;;;;;;;12.35;6.05;;;10.80;92.50;;;;;;4914521;29;20092;-79
2022/04/14 02:43:56;;;;;;;14.38;6.15;;;10.80;92.70;;;;;;4914634;29;20111;-81
2022/04/14 02:46:21;;;;;;;14.88;5.82;;;10.80;93.10;;;;;;4913251;29;20032;-80
2022/04/14 02:48:47;;;;;;;17.92;5.80;;;10.70;93.20;;;;;;4913722;29;20032;-80
2022/04/14 02:51:13;;;;;;;11.43;5.90;;;10.70;93.80;;;;;;4916937;29;20032;-80
2022/04/14 02:53:39;;;;;;;14.50;5.63;;;10.60;94.00;;;;;;4914387;29;20087;-81
2022/04/14 02:56:09;;;;;;;15.05;6.32;;;10.60;94.30;;;;;;4908675;29;20021;-82
2022/04/14 02:58:37;;;;;;;11.32;5.68;;;10.60;94.60;;;;;;4908223;29;20564;-81
2022/04/14 03:01:03;;;;;;;13.88;5.72;;;10.50;94.50;;;;;;4907869;29;20020;-82
2022/04/14 03:03:29;;;;;;;12.48;6.20;;;10.60;94.90;;;;;;4907713;29;20115;-80
2022/04/14 03:05:55;;;;;;;12.93;6.28;;;10.50;95.20;;;;;;4910670;29;20028;-80
2022/04/14 03:08:20;;;;;;;15.68;5.93;;;10.50;95.50;;;;;;4910169;29;20031;-79
2022/04/14 03:10:46;;;;;;;12.65;6.63;;;10.50;96.10;;;;;;4914895;29;20032;-81
2022/04/14 03:13:12;;;;;;;12.52;6.78;;;10.40;96.70;;;;;;4921746;29;20032;-78
2022/04/14 03:15:38;;;;;;;17.02;6.90;;;10.40;96.90;;;;;;4917059;29;20029;-79
2022/04/14 03:18:05;;;;;;;8.68;5.60;;;10.40;97.20;;;;;;4911312;29;20029;-83
2022/04/14 03:20:31;;;;;;;11.85;5.78;;;10.30;97.70;;;;;;4912232;29;20029;-81
2022/04/14 03:22:58;;;;;;;11.93;5.95;;;10.30;97.60;;;;;;4916913;29;20210;-82
2022/04/14 03:25:24;;;;;;;8.88;5.55;;;10.30;97.90;;;;;;4916850;29;20104;-79
2022/04/14 03:27:50;;;;;;;14.85;6.00;;;10.30;97.80;;;;;;4915887;29;20024;-79
2022/04/14 03:30:16;;;;;;;13.65;5.63;;;10.30;97.70;;;;;;4914748;29;20079;-80
2022/04/14 03:32:46;;;;;;;11.68;5.47;;;10.30;97.90;;;;;;4916706;29;20088;-79
2022/04/14 03:35:13;;;;;;;11.23;5.45;;;10.20;97.80;;;;;;4910474;29;20036;-81
2022/04/14 03:37:39;;;;;;;18.70;7.03;;;10.20;98.10;;;;;;4911095;29;20028;-79
2022/04/14 03:40:06;;;;;;;15.75;6.55;;;10.20;98.20;;;;;;4912965;29;20053;-81
2022/04/14 03:42:32;;;;;;;11.43;5.82;;;10.20;98.40;;;;;;4913354;29;20109;-79
2022/04/14 03:44:58;;;;;;;23.75;6.07;;;10.10;98.40;;;;;;4910551;29;20043;-79
2022/04/14 03:47:25;;;;;;;13.80;5.47;;;10.10;98.60;;;;;;4916672;29;20032;-79
2022/04/14 03:49:51;;;;;;;10.77;5.70;;;10.20;98.90;;;;;;4915700;29;20032;-79
2022/04/14 03:52:17;;;;;;;10.93;6.05;;;10.10;99.00;;;;;;4914256;29;20040;-79
2022/04/14 03:54:43;;;;;;;16.67;5.95;;;10.10;99.00;;;;;;4910875;29;20508;-80
2022/04/14 03:57:10;;;;;;;10.70;6.00;;;10.10;99.30;;;;;;4915246;29;20021;-79
2022/04/14 03:59:36;;;;;;;9.45;5.93;;;10.10;99.80;;;;;;4913433;29;20031;-78
2022/04/14 04:02:03;;;;;;;13.85;6.40;;;10.10;99.90;;;;;;4908829;29;20473;-81
2022/04/14 04:04:28;;;;;;;10.60;6.15;;;10.10;99.90;;;;;;4906627;29;20131;-81
2022/04/14 04:06:54;;;;;;;16.55;6.35;;;10.10;99.90;;;;;;4910510;29;20040;-81
2022/04/14 04:09:20;;;;;;;14.93;5.72;;;10.00;99.90;;;;;;4904733;29;20060;-82
2022/04/14 04:11:46;;;;;;;12.10;5.30;;;10.00;99.90;;;;;;4907162;29;20032;-83
2022/04/14 04:14:12;;;;;;;12.13;5.57;;;10.10;99.90;;;;;;4890175;29;20045;-81
2022/04/14 04:16:38;;;;;;;19.10;6.47;;;10.00;99.90;;;;;;4917972;29;20057;-80
2022/04/14 04:19:03;;;;;;;11.63;6.22;;;10.00;99.90;;;;;;4918192;29;20106;-80
2022/04/14 04:21:30;;;;;;;10.75;5.10;;;10.00;99.90;;;;;;4909716;29;20119;-81
2022/04/14 04:23:56;;;;;;;10.05;5.65;;;10.00;99.90;;;;;;4906443;29;20028;-81
2022/04/14 04:26:22;;;;;;;15.32;8.02;;;10.00;99.90;;;;;;4911923;29;20039;-80
2022/04/14 04:28:48;;;;;;;14.68;6.45;;;10.00;99.90;;;;;;4912706;29;20092;-79
2022/04/14 04:31:14;;;;;;;12.52;5.35;;;10.00;99.90;;;;;;4916297;29;20037;-81
2022/04/14 04:33:39;;;;;;;14.80;5.60;;;10.10;98.80;;;;;;4907117;29;20051;-81
2022/04/14 04:36:07;;;;;;;15.60;5.10;;;10.10;98.70;;;;;;4905818;29;20027;-81
2022/04/14 04:38:33;;;;;;;13.93;5.20;;;10.20;98.60;;;;;;4907615;29;20039;-77
2022/04/14 04:40:59;;;;;;;14.52;5.47;;;10.20;97.70;;;;;;4909365;29;20024;-82
2022/04/14 04:43:26;;;;;;;10.85;5.70;;;10.20;97.40;;;;;;4900810;29;20040;-83
2022/04/14 04:45:51;;;;;;;12.93;6.10;;;10.30;97.30;;;;;;4911108;29;20037;-82
2022/04/14 04:48:17;;;;;;;17.70;5.20;;;10.40;96.70;;;;;;4910236;29;20077;-82
2022/04/14 04:50:43;;;;;;;14.27;5.10;;;10.40;96.40;;;;;;4909489;29;20017;-81
2022/04/14 04:53:09;;;;;;;15.57;6.13;;;10.50;95.90;;;;;;4907884;29;20103;-82
2022/04/14 04:55:34;;;;;;;17.33;5.28;;;10.50;95.60;;;;;;4908188;29;20032;-82
2022/04/14 04:58:00;;;;;;;15.40;5.45;;;10.60;95.70;;;;;;4908731;29;20093;-80
2022/04/14 05:00:26;;;;;;;14.02;5.78;;;10.60;95.40;;;;;;4909186;29;20408;-84
2022/04/14 05:02:52;;;;;;;17.00;5.32;;;10.60;95.20;;;;;;4909162;29;20235;-83
2022/04/14 05:05:22;;;;;;;12.20;5.18;;;10.70;94.90;;;;;;4908015;29;20060;-84
2022/04/14 05:07:47;;;;;;;15.38;5.30;;;10.70;94.70;;;;;;4911388;29;20036;-80
2022/04/14 05:10:13;;;;;;;10.77;4.95;;;10.70;94.90;;;;;;4913258;29;20024;-81
2022/04/14 05:12:40;;;;;;;11.52;5.40;;;10.80;94.80;;;;;;4907926;29;20084;-80
2022/04/14 05:15:06;;;;;;;17.48;5.30;;;10.80;94.70;;;;;;4908107;29;20488;-82
2022/04/14 05:17:32;;;;;;;15.40;5.47;;;10.80;94.20;;;;;;4909311;29;20037;-82
2022/04/14 05:19:58;;;;;;;14.68;5.82;;;10.90;93.80;;;;;;4907185;29;20080;-80
2022/04/14 05:22:23;;;;;;;13.40;5.20;;;11.00;93.90;;;;;;4908085;29;20544;-83
2022/04/14 05:24:49;;;;;;;21.95;5.32;;;11.00;93.60;;;;;;4906875;29;20040;-83
2022/04/14 05:27:15;;;;;;;19.30;5.85;;;11.10;93.50;;;;;;4908431;29;20032;-83
2022/04/14 05:29:41;;;;;;;14.18;5.25;;;11.20;93.10;;;;;;4911756;29;20039;-81
2022/04/14 05:32:07;;;;;;;12.52;5.15;;;11.30;92.90;;;;;;4907758;29;20025;-82
2022/04/14 05:34:33;;;;;;;21.92;5.00;;;11.30;92.80;;;;;;4907358;29;20028;-81
2022/04/14 05:36:59;;;;;;;11.40;5.25;;;11.40;92.60;;;;;;4905106;29;20524;-81
2022/04/14 05:39:25;;;;;;;15.60;5.85;;;11.50;92.20;;;;;;4930030;23;20049;-85
2022/04/14 05:41:50;;;;;;;16.52;5.72;;;11.60;92.30;;;;;;4911527;29;20048;-85
2022/04/14 05:44:17;;;;;;;11.15;6.00;;;11.70;92.20;;;;;;4912447;29;20047;-85
2022/04/14 05:46:43;;;;;;;19.02;5.30;;;11.80;92.30;;;;;;4911310;29;20025;-85
2022/04/14 05:49:09;;;;;;;21.42;6.15;;;11.90;92.90;;;;;;4891776;29;20126;-83
2022/04/14 05:51:34;;;;;;;20.33;11.75;;;12.00;93.00;;;;;;4914548;29;20382;-83
2022/04/14 05:54:00;;;;;;;12.05;5.13;;;12.20;93.00;;;;;;4914061;29;20021;-81
2022/04/14 05:56:26;;;;;;;23.52;5.50;;;12.20;92.80;;;;;;4913771;29;20033;-84
2022/04/14 05:58:53;;;;;;;13.68;5.05;;;12.30;92.50;;;;;;4908652;29;20175;-82
2022/04/14 06:01:19;;;;;;;13.23;4.78;;;12.30;92.40;;;;;;4913275;29;20029;-82
2022/04/14 06:03:45;;;;;;;10.82;5.47;;;12.40;92.20;;;;;;4916143;29;20017;-82
2022/04/14 06:06:13;;;;;;;14.43;5.25;;;12.50;92.10;;;;;;4912074;29;20039;-82
2022/04/14 06:08:40;;;;;;;15.05;5.60;;;12.60;92.20;;;;;;4895986;29;20511;-84
2022/04/14 06:11:06;;;;;;;16.58;4.65;;;12.70;91.70;;;;;;4906389;29;20032;-85
2022/04/14 06:13:33;;;;;;;19.90;5.63;;;12.80;91.60;;;;;;4910344;29;20071;-83
2022/04/14 06:15:59;;;;;;;18.38;5.38;;;12.90;91.40;;;;;;4906343;29;20397;-82
2022/04/14 06:18:25;;;;;;;12.65;5.22;;;13.00;91.60;;;;;;4904405;29;20029;-84
2022/04/14 06:20:52;;;;;;;21.20;5.03;;;13.10;91.30;;;;;;4906913;29;20091;-86
2022/04/14 06:23:18;;;;;;;20.75;6.20;;;13.20;91.10;;;;;;4910845;29;20028;-84
2022/04/14 06:25:50;;;;;;;15.27;5.97;;;13.30;90.60;;;;;;4911718;29;20076;-82
2022/04/14 06:28:17;;;;;;;21.95;5.85;;;13.30;90.50;;;;;;4900935;29;20059;-85
2022/04/14 06:30:46;;;;;;;15.50;5.35;;;13.50;90.60;;;;;;4908651;29;20106;-85
2022/04/14 06:33:11;;;;;;;15.60;5.82;;;13.60;90.30;;;;;;4907079;29;20055;-87
2022/04/14 06:35:38;;;;;;;14.20;5.30;;;13.70;88.50;;;;;;4908317;29;20036;-85
2022/04/14 06:38:04;;;;;;;15.30;5.07;;;13.70;88.70;;;;;;4907378;29;20051;-85
2022/04/14 06:40:30;;;;;;;11.27;5.32;;;13.70;88.60;;;;;;4913200;29;20024;-85
2022/04/14 06:42:55;;;;;;;12.98;5.00;;;13.80;89.30;;;;;;4917239;29;20041;-81
2022/04/14 06:45:21;;;;;;;17.48;4.95;;;13.90;89.30;;;;;;4912860;29;20053;-84
2022/04/14 06:47:47;;;;;;;14.65;5.63;;;13.90;88.90;;;;;;4879523;29;20044;-84
2022/04/14 06:50:13;;;;;;;14.65;4.70;;;14.10;89.10;;;;;;4893973;29;20040;-85
2022/04/14 06:52:39;;;;;;;16.73;5.57;;;14.20;87.80;;;;;;4916542;29;20043;-84
2022/04/14 06:55:07;;;;;;;17.80;5.32;;;14.30;88.50;;;;;;4914595;29;22652;-84
2022/04/14 06:57:33;;;;;;;11.18;5.18;;;14.40;86.50;;;;;;4918497;29;20036;-84
2022/04/14 06:59:58;;;;;;;14.45;4.97;;;14.30;85.90;;;;;;4918778;29;20068;-83
2022/04/14 07:02:24;;;;;;;20.33;5.35;;;14.30;86.30;;;;;;4910995;29;20025;-84
2022/04/14 07:04:50;;;;;;;11.05;4.63;;;14.30;85.50;;;;;;4913324;29;20024;-86
2022/04/14 07:07:16;;;;;;;17.17;5.22;;;14.40;85.10;;;;;;4909063;29;20067;-84
2022/04/14 07:09:41;;;;;;;9.68;4.70;;;14.40;85.00;;;;;;4916779;29;20044;-83
2022/04/14 07:12:08;;;;;;;13.10;5.00;;;14.50;85.10;;;;;;4920558;29;20123;-82
2022/04/14 07:14:34;;;;;;;13.98;4.75;;;14.40;84.60;;;;;;4901877;29;20029;-83
2022/04/14 07:17:00;;;;;;;11.65;4.43;;;14.60;84.40;;;;;;4913472;29;20020;-82
2022/04/14 07:19:26;;;;;;;12.50;4.57;;;14.70;83.80;;;;;;4917823;29;20044;-83
2022/04/14 07:21:53;;;;;;;5.32;3.55;;;14.70;83.70;;;;;;4917974;29;20036;-85
2022/04/14 07:24:19;;;;;;;14.27;4.78;;;14.70;83.70;;;;;;4917512;29;20028;-83
2022/04/14 07:26:45;;;;;;;13.80;4.38;;;14.90;84.00;;;;;;4911314;29;20029;-81
2022/04/14 07:29:11;;;;;;;9.57;4.68;;;15.10;83.80;;;;;;4913083;29;20021;-83
2022/04/14 07:31:37;;;;;;;13.88;4.70;;;15.20;82.80;;;;;;4908584;29;20076;-84
2022/04/14 07:34:05;;;;;;;13.65;5.20;;;15.20;82.40;;;;;;4915521;29;20047;-88
2022/04/14 07:36:31;;;;;;;18.88;4.97;;;15.20;82.70;;;;;;4909787;29;20072;-82
2022/04/14 07:38:57;;;;;;;15.00;5.18;;;15.20;83.30;;;;;;4904979;29;20063;-85
2022/04/14 07:41:23;;;;;;;12.80;4.38;;;15.40;82.50;;;;;;4907650;29;20052;-85
2022/04/14 07:43:48;;;;;;;13.32;4.68;;;15.50;81.50;;;;;;4903168;29;20072;-85
2022/04/14 07:46:14;;;;;;;9.88;4.05;;;15.60;81.20;;;;;;4905123;29;20517;-85
2022/04/14 07:48:40;;;;;;;9.27;4.72;;;15.70;82.50;;;;;;4904039;29;20108;-87
2022/04/14 07:51:07;;;;;;;12.27;5.68;;;15.70;81.30;;;;;;4910854;29;20154;-86
2022/04/14 07:53:33;;;;;;;11.85;4.32;;;15.80;80.40;;;;;;4909455;29;20079;-85
2022/04/14 07:56:00;;;;;;;12.07;4.72;;;15.90;80.70;;;;;;4907864;29;20036;-86
2022/04/14 07:58:26;;;;;;;11.13;4.93;;;15.90;79.80;;;;;;4908123;29;20037;-85
2022/04/14 08:00:52;;;;;;;13.60;4.75;;;16.00;80.00;;;;;;4911189;29;20020;-85
2022/04/14 08:03:18;;;;;;;10.80;4.45;;;16.10;79.90;;;;;;4914270;29;20066;-81
2022/04/14 08:05:46;;;;;;;11.00;4.82;;;16.30;79.90;;;;;;4920038;29;20036;-83
2022/04/14 08:08:13;;;;;;;7.60;4.90;;;16.40;79.90;;;;;;4920366;29;20042;-83
2022/04/14 08:10:41;;;;;;;11.27;5.25;;;16.60;80.00;;;;;;4918638;29;20032;-84
2022/04/14 08:13:07;;;;;;;15.35;4.90;;;16.80;80.50;;;;;;4914316;29;20535;-86
2022/04/14 08:15:34;;;;;;;18.15;6.00;;;16.80;79.10;;;;;;4916096;29;20024;-83
2022/04/14 08:18:00;;;;;;;10.50;4.88;;;17.00;79.60;;;;;;4915203;29;20069;-86
2022/04/14 08:20:27;;;;;;;17.58;4.38;;;17.10;77.80;;;;;;4913939;29;20036;-86
2022/04/14 08:22:58;;;;;;;12.70;4.68;;;17.10;78.20;;;;;;4911299;29;20064;-85
2022/04/14 08:25:32;;;;;;;13.57;4.38;;;17.10;75.70;;;;;;4915526;29;20055;-83
2022/04/14 08:28:00;;;;;;;9.90;3.70;;;17.20;76.00;;;;;;4913670;29;20052;-83
2022/04/14 08:30:28;;;;;;;8.38;3.15;;;17.30;75.20;;;;;;4909354;29;20032;-83
2022/04/14 08:32:55;;;;;;;9.07;3.42;;;17.40;74.60;;;;;;4894757;29;20029;-84
2022/04/14 08:35:22;;;;;;;6.72;3.65;;;17.60;74.50;;;;;;4915665;29;20023;-87
2022/04/14 08:37:49;;;;;;;6.57;3.33;;;17.70;73.40;;;;;;4908182;29;20036;-84
2022/04/14 08:40:23;;;;;;;7.55;3.08;;;17.80;73.60;;;;;;4905974;29;20060;-85
2022/04/14 08:42:57;;;;;;;7.05;3.42;;;17.90;73.10;;;;;;4911827;29;20033;-86
2022/04/14 08:45:25;;;;;;;9.18;4.60;;;18.00;73.30;;;;;;4908324;29;20024;-85
2022/04/14 08:47:51;;;;;;;10.55;3.65;;;18.10;72.70;;;;;;4907250;29;20124;-84
2022/04/14 08:50:18;;;;;;;10.05;3.70;;;18.10;72.60;;;;;;4909176;29;20479;-85
2022/04/14 08:52:44;;;;;;;12.88;3.90;;;18.10;72.40;;;;;;4913951;29;20031;-85
2022/04/14 08:55:11;;;;;;;10.60;3.70;;;18.10;72.20;;;;;;4911133;29;20029;-86
2022/04/14 08:57:38;;;;;;;12.65;3.70;;;18.10;72.20;;;;;;4904537;29;20059;-84
2022/04/14 09:00:10;;;;;;;7.32;3.45;;;18.10;72.70;;;;;;4913792;29;20080;-84
2022/04/14 09:02:37;;;;;;;11.38;3.70;;;18.20;72.40;;;;;;4913247;29;20044;-84
2022/04/14 09:05:04;;;;;;;5.60;3.72;;;18.30;72.20;;;;;;4914345;29;20017;-84
2022/04/14 09:07:30;;;;;;;6.57;4.03;;;18.40;72.40;;;;;;4916050;29;20027;-86
2022/04/14 09:09:55;;;;;;;9.10;3.70;;;18.40;72.40;;;;;;4913273;29;20021;-84
2022/04/14 09:12:21;;;;;;;10.60;4.75;;;18.40;72.40;;;;;;4911809;29;20029;-83
2022/04/14 09:14:48;;;;;;;9.48;3.45;;;18.40;72.00;;;;;;4912791;29;20029;-85
2022/04/14 09:17:14;;;;;;;7.65;4.10;;;18.60;71.70;;;;;;4908273;29;20060;-84
2022/04/14 09:19:41;;;;;;;5.82;3.53;;;19.00;71.30;;;;;;4911947;29;20078;-84
2022/04/14 09:22:08;;;;;;;9.88;4.15;;;19.40;70.70;;;;;;4914445;29;20043;-85
2022/04/14 09:25:19;;;;;;;6.28;4.10;;;19.60;70.10;;;;;;4913053;29;20025;-84
2022/04/14 09:27:45;;;;;;;8.75;3.50;;;20.50;69.50;;;;;;4892948;29;20040;-85
2022/04/14 09:30:17;;;;;;;13.05;3.75;;;20.80;68.60;;;;;;4905301;29;20044;-86
2022/04/14 09:32:44;;;;;;;7.35;3.83;;;21.20;67.20;;;;;;4908371;29;20593;-84
2022/04/14 09:35:18;;;;;;;7.28;3.67;;;21.40;67.20;;;;;;4907204;29;20035;-86
2022/04/14 09:37:44;;;;;;;12.03;4.13;;;21.90;66.10;;;;;;4909816;29;20032;-85
2022/04/14 09:40:12;;;;;;;12.02;4.15;;;22.30;64.90;;;;;;4905754;29;20048;-85
2022/04/14 09:42:40;;;;;;;6.53;3.30;;;23.10;63.60;;;;;;4910146;29;20064;-83
2022/04/14 09:45:23;;;;;;;11.88;4.25;;;23.50;62.50;;;;;;4915775;29;20024;-86
2022/04/14 09:47:50;;;;;;;8.50;3.97;;;24.00;61.10;;;;;;4916317;29;20009;-85
2022/04/14 09:50:35;;;;;;;7.22;3.90;;;24.50;60.00;;;;;;4916925;29;20037;-83
2022/04/14 09:53:15;;;;;;;8.07;3.80;;;25.80;58.90;;;;;;4921502;29;20104;-83
2022/04/14 09:55:53;;;;;;;7.97;3.30;;;26.70;56.90;;;;;;4922001;29;20028;-83
2022/04/14 09:58:25;;;;;;;6.35;3.50;;;26.40;56.60;;;;;;4923439;29;20056;-82
2022/04/14 10:00:58;;;;;;;15.27;3.63;;;27.10;55.50;;;;;;4919584;29;20021;-84
2022/04/14 10:03:26;;;;;;;7.15;3.28;;;27.30;54.10;;;;;;4921174;29;20020;-82
2022/04/14 10:05:56;;;;;;;10.63;3.88;;;27.30;53.40;;;;;;4918867;29;20024;-84
2022/04/14 10:08:24;;;;;;;7.07;3.10;;;27.20;53.10;;;;;;4918422;29;20050;-82
2022/04/14 10:11:03;;;;;;;11.90;3.30;;;27.30;52.80;;;;;;4919376;29;20013;-83
2022/04/14 10:13:34;;;;;;;9.00;3.15;;;28.30;52.20;;;;;;4921400;29;20021;-81
2022/04/14 10:16:00;;;;;;;6.43;3.35;;;29.20;51.00;;;;;;4920281;29;20025;-82
2022/04/14 10:18:26;;;;;;;7.25;3.40;;;29.30;50.00;;;;;;4920815;29;20076;-83
2022/04/14 10:20:52;;;;;;;4.88;3.22;;;29.50;49.40;;;;;;4922607;29;20040;-83
2022/04/14 10:23:18;;;;;;;10.32;3.60;;;29.40;49.30;;;;;;4920416;29;20033;-83
2022/04/14 10:25:43;;;;;;;6.95;3.05;;;29.60;49.20;;;;;;4921156;29;20128;-81
2022/04/14 10:28:13;;;;;;;9.32;3.53;;;29.50;48.80;;;;;;4921835;29;20068;-85
2022/04/14 10:30:56;;;;;;;8.90;3.33;;;29.70;48.50;;;;;;4916593;29;20043;-83
2022/04/14 10:33:22;;;;;;;9.80;4.13;;;29.70;47.80;;;;;;4913481;29;20025;-85
2022/04/14 10:35:52;;;;;;;7.90;3.42;;;29.80;48.30;;;;;;4911718;29;20024;-85
2022/04/14 10:38:36;;;;;;;7.80;3.58;;;31.00;47.70;;;;;;4914368;29;20047;-85
2022/04/14 10:41:04;;;;;;;12.15;3.10;;;31.80;46.80;;;;;;4913231;29;20031;-86
2022/04/14 10:43:32;;;;;;;9.77;3.08;;;32.10;46.30;;;;;;4914750;29;20039;-85
2022/04/14 10:45:59;;;;;;;11.60;3.78;;;32.10;45.70;;;;;;4916650;29;20060;-82
2022/04/14 10:48:31;;;;;;;10.93;3.50;;;31.60;45.30;;;;;;4921246;29;20029;-82
2022/04/14 10:51:29;;;;;;;7.28;3.25;;;31.50;45.80;;;;;;4922548;29;20017;-82
2022/04/14 10:54:01;;;;;;;9.68;3.80;;;32.20;45.00;;;;;;4916621;29;20052;-82
2022/04/14 10:56:33;;;;;;;11.43;3.90;;;31.60;45.40;;;;;;4915222;29;20037;-85
2022/04/14 10:59:00;;;;;;;14.60;3.33;;;31.40;45.40;;;;;;4917997;29;20029;-82
2022/04/14 11:01:48;;;;;;;9.00;3.65;;;31.20;45.30;;;;;;4918775;29;20053;-82
2022/04/14 11:04:38;;;;;;;7.43;3.50;;;31.90;44.90;;;;;;4913691;29;20092;-84
2022/04/14 11:07:13;;;;;;;9.23;3.22;;;31.30;44.90;;;;;;4919955;29;20027;-84
2022/04/14 11:09:42;;;;;;;14.38;3.80;;;31.10;45.20;;;;;;4919183;29;20087;-83
2022/04/14 11:12:19;;;;;;;16.60;3.70;;;31.50;45.10;;;;;;4920246;29;20032;-85
2022/04/14 11:14:47;;;;;;;5.55;3.33;;;32.50;44.80;;;;;;4918262;29;20043;-84
2022/04/14 11:17:48;;;;;;;10.68;3.50;;;32.40;44.10;;;;;;4919915;29;20052;-84
2022/04/14 11:20:30;;;;;;;12.77;3.85;;;31.50;44.40;;;;;;4918009;29;20048;-83
2022/04/14 11:23:08;;;;;;;11.50;3.90;;;31.20;45.00;;;;;;4919487;29;20020;-83
2022/04/14 11:25:41;;;;;;;13.95;3.40;;;31.60;44.90;;;;;;4918915;29;20036;-82
2022/04/14 11:28:30;;;;;;;11.88;4.03;;;31.90;44.70;;;;;;4920711;29;20048;-84
2022/04/14 11:31:21;;;;;;;8.20;3.35;;;32.40;44.60;;;;;;4920270;29;20035;-83
2022/04/14 11:33:48;;;;;;;12.52;4.20;;;32.10;44.50;;;;;;4914789;29;20020;-83
2022/04/14 11:36:17;;;;;;;7.18;3.47;;;33.50;44.30;;;;;;4916666;29;20080;-83
2022/04/14 11:39:03;;;;;;;9.65;3.88;;;34.70;43.60;;;;;;4927670;23;20045;-84
2022/04/14 11:41:50;;;;;;;11.70;3.72;;;35.40;42.70;;;;;;4904612;29;20035;-83
2022/04/14 11:44:21;;;;;;;9.02;3.20;;;34.20;42.80;;;;;;4904558;29;20029;-83
2022/04/14 11:46:52;;;;;;;12.30;3.50;;;33.60;43.50;;;;;;4907115;29;20051;-84
2022/04/14 11:49:23;;;;;;;7.15;3.53;;;34.70;43.10;;;;;;4906708;29;20092;-84
2022/04/14 11:51:53;;;;;;;9.48;3.05;;;34.30;42.80;;;;;;4916604;29;20064;-82
2022/04/14 11:54:21;;;;;;;11.18;3.72;;;34.10;43.10;;;;;;4906194;29;20040;-82
2022/04/14 11:56:54;;;;;;;9.90;3.10;;;34.60;42.80;;;;;;4896969;29;20480;-83
2022/04/14 11:59:32;;;;;;;10.45;4.10;;;33.80;42.50;;;;;;4886194;29;20059;-82
2022/04/14 12:02:02;;;;;;;10.93;3.80;;;33.60;43.00;;;;;;4888100;29;20037;-82
2022/04/14 12:04:36;;;;;;;11.07;3.55;;;33.40;43.20;;;;;;4886870;29;20512;-82
2022/04/14 12:07:02;;;;;;;8.33;3.53;;;33.30;43.10;;;;;;4896170;29;20029;-81
2022/04/14 12:09:28;;;;;;;11.73;3.55;;;33.60;43.30;;;;;;4896287;29;20054;-82
2022/04/14 12:11:54;;;;;;;7.30;3.53;;;34.10;42.90;;;;;;4878152;29;20033;-82
2022/04/14 12:14:21;;;;;;;6.78;3.30;;;34.80;42.90;;;;;;4895452;29;20073;-83
2022/04/14 12:16:53;;;;;;;7.30;3.00;;;35.40;42.20;;;;;;4894436;29;20033;-84
2022/04/14 12:19:20;;;;;;;13.38;3.80;;;35.30;42.20;;;;;;4887467;29;20048;-82
2022/04/14 12:22:05;;;;;;;8.35;3.38;;;35.00;42.30;;;;;;4890085;29;20557;-83
2022/04/14 12:24:31;;;;;;;7.28;3.42;;;34.00;42.30;;;;;;4889996;29;20025;-83
2022/04/14 12:27:00;;;;;;;5.05;2.92;;;33.80;42.80;;;;;;4890556;29;20043;-83
2022/04/14 12:29:29;;;;;;;14.90;3.97;;;34.70;42.70;;;;;;4891088;29;20040;-82
2022/04/14 12:32:17;;;;;;;6.82;3.50;;;35.20;42.20;;;;;;4889001;29;20025;-84
2022/04/14 12:34:44;;;;;;;9.95;3.33;;;35.30;41.80;;;;;;4879202;29;20093;-82
2022/04/14 12:37:15;;;;;;;7.45;3.25;;;34.80;41.50;;;;;;4888730;29;20036;-84
2022/04/14 12:40:00;;;;;;;9.18;3.47;;;34.80;42.30;;;;;;4874279;29;20029;-81
2022/04/14 12:42:32;;;;;;;6.03;3.10;;;34.40;42.20;;;;;;4910771;29;20025;-81